Terminal Aerodrome Forecast
Issued by NWS

Home | Current Version | Previous Version | Text Only | Print | Product List | Glossary On
Versions: 1 2 3 4 5 6 7 8 9 10 11 12 13 14 15 16 17 18 19 20
093
FTUS42 KMLB 221135
TAFFPR
TAF
KFPR 221135Z 2212/2312 13015G22KT P6SM VCSH SCT025 BKN030 OVC060
      TEMPO 2212/2214 5SM SHRA BKN020 OVC040
     FM221400 13014G22KT P6SM VCSH SCT025 BKN040 OVC060
      TEMPO 2214/2218 5SM SHRA OVC010
     FM221800 15012G20KT 5SM -RA BR OVC015
      TEMPO 2218/2222 2SM SHRA OVC008
     FM222200 14011KT 5SM -RA BR OVC020
      TEMPO 2222/2302 3SM SHRA BKN015 OVC030
     FM230200 13012KT P6SM VCSH SCT020 OVC040
     FM230600 13007KT P6SM SCT020 OVC040=

USA.gov is the U.S. government's official web portal to all federal, state and local government web resources and services.